Riverside, New Mexico
Current Conditions -  °F | °C
As of 9:15 AM on Wednesday 26 Nov 2014 (Local Time) from KLAM Reporting Station
Clear Clear  
Wind Chill: 30°   Ceiling: Unl
Heat Index: 35°   Visibility: 10mi
Dew Point: 17°   Wind: 6mph
Humidity: 48%   Direction: 180°S
Pressure: 30.37"   Gusts: NA
Location:  35.9775°N, 106.158°W
Report Text: KLAM 261615Z AUTO 18005KT 10SM CLR 02/M08 A3037 RMK AO2 T00171083
Loading
Personal Weather Stations






























Interactive Weather Map New forecast layout! Learn more

10-Day Weather Forecast

Advertisements
Track Severe Weather on mobile